Time;durP1;ratioP1;P1;durP2;ratioP2;P2;SDS_P1;SDS_P2;PMS_P1;PMS_P2;Temp;Humidity;BMP_temperature;BMP_pressure;BME280_temperature;BME280_humidity;BME280_pressure;Samples;Min_cycle;Max_cycle;Signal;HPM_P1;HPM_P2
2023/11/02 00:00:44;;;;;;;0.80;0.70;;;;;;;9.77;100.00;100577.63;104757;1254;73780;-51
2023/11/02 00:03:13;;;;;;;2.40;0.80;;;;;;;9.76;100.00;100593.44;104591;1254;66878;-50
2023/11/02 00:05:47;;;;;;;1.60;1.00;;;;;;;9.74;100.00;100581.13;108798;1254;71490;-52
2023/11/02 00:08:14;;;;;;;2.20;0.60;;;;;;;9.73;100.00;100578.11;109036;1254;59494;-52
2023/11/02 00:10:42;;;;;;;0.90;0.80;;;;;;;9.72;100.00;100571.67;108868;1254;60408;-51
2023/11/02 00:13:17;;;;;;;1.50;0.70;;;;;;;9.71;100.00;100568.31;108844;1254;73919;-52
2023/11/02 00:15:45;;;;;;;1.20;0.60;;;;;;;9.70;100.00;100568.33;108974;1254;65700;-51
2023/11/02 00:18:12;;;;;;;7.30;0.70;;;;;;;9.69;100.00;100566.77;108939;1254;73231;-52
2023/11/02 00:20:40;;;;;;;2.00;0.70;;;;;;;9.69;100.00;100568.92;108786;1254;60458;-52
2023/11/02 00:23:07;;;;;;;2.70;0.70;;;;;;;9.69;100.00;100566.42;108947;1254;59667;-51
2023/11/02 00:25:41;;;;;;;0.70;0.60;;;;;;;9.70;100.00;100568.00;108833;1254;74223;-49
2023/11/02 00:28:08;;;;;;;2.50;0.60;;;;;;;9.70;100.00;100567.09;109068;1254;67638;-50
2023/11/02 00:30:36;;;;;;;5.00;0.70;;;;;;;9.67;100.00;100562.89;108847;1254;71553;-49
2023/11/02 00:33:04;;;;;;;1.30;0.60;;;;;;;9.64;100.00;100561.00;108876;1256;59789;-50
2023/11/02 00:35:32;;;;;;;1.80;0.50;;;;;;;9.61;100.00;100557.17;109028;1254;58795;-49
2023/11/02 00:37:59;;;;;;;5.50;1.00;;;;;;;9.58;100.00;100557.63;108797;1254;73930;-49
2023/11/02 00:40:27;;;;;;;2.30;0.50;;;;;;;9.56;100.00;100556.96;108832;1254;66725;-50
2023/11/02 00:42:54;;;;;;;3.30;0.50;;;;;;;9.53;100.00;100553.51;108796;1254;73149;-49
2023/11/02 00:45:21;;;;;;;1.30;0.50;;;;;;;9.49;100.00;100554.67;108900;1256;61753;-48
2023/11/02 00:47:49;;;;;;;2.20;0.50;;;;;;;9.48;100.00;100555.42;108916;1254;60495;-50
2023/11/02 00:50:33;;;;;;;0.40;0.40;;;;;;;9.47;100.00;100555.27;104800;1259;72378;-50
2023/11/02 00:53:00;;;;;;;0.60;0.50;;;;;;;9.46;100.00;100558.34;104595;1257;66001;-50
2023/11/02 00:55:37;;;;;;;0.60;0.50;;;;;;;9.45;100.00;100552.27;104871;1254;72664;-50
2023/11/02 00:58:08;;;;;;;0.50;0.50;;;;;;;9.45;100.00;100559.64;104780;1254;59588;-50
2023/11/02 01:00:52;;;;;;;4.80;0.70;;;;;;;9.44;100.00;100555.02;104627;1254;60476;-51
2023/11/02 01:03:20;;;;;;;0.60;0.50;;;;;;;9.43;100.00;100559.89;104759;1259;73866;-49
2023/11/02 01:05:50;;;;;;;0.70;0.50;;;;;;;9.43;100.00;100554.70;104583;1260;66774;-50
2023/11/02 01:08:23;;;;;;;0.80;0.40;;;;;;;9.41;100.00;100552.77;104847;1257;71536;-50
2023/11/02 01:10:51;;;;;;;0.90;0.50;;;;;;;9.38;100.00;100548.55;108776;1254;60843;-51
2023/11/02 01:13:19;;;;;;;0.70;0.40;;;;;;;9.37;100.00;100544.31;106188;1259;60501;-50
2023/11/02 01:16:06;;;;;;;1.90;0.50;;;;;;;9.34;100.00;100543.86;105226;1259;73902;-52
2023/11/02 01:18:34;;;;;;;0.50;0.40;;;;;;;9.33;100.00;100556.80;108940;1256;67982;-52
2023/11/02 01:21:03;;;;;;;0.60;0.40;;;;;;;9.31;100.00;100542.69;108263;1257;72666;-51
2023/11/02 01:23:32;;;;;;;1.00;0.40;;;;;;;9.31;100.00;100539.48;104761;1257;60566;-49
2023/11/02 01:26:04;;;;;;;3.60;0.50;;;;;;;9.31;100.00;100540.02;104538;1260;61254;-50
2023/11/02 01:29:01;;;;;;;0.70;0.50;;;;;;;9.31;100.00;100541.27;104698;1255;72682;-50
2023/11/02 01:31:35;;;;;;;1.40;0.50;;;;;;;9.30;100.00;100559.02;104707;1256;67481;-50
2023/11/02 01:34:02;;;;;;;0.60;0.40;;;;;;;9.26;100.00;100544.48;104554;1256;73155;-48
2023/11/02 01:36:31;;;;;;;3.50;0.50;;;;;;;9.21;100.00;100538.71;105361;1259;60569;-50
2023/11/02 01:39:01;;;;;;;1.30;0.40;;;;;;;9.15;100.00;100539.60;104612;1259;60435;-48
2023/11/02 01:42:03;;;;;;;1.80;0.40;;;;;;;9.10;100.00;100538.52;106825;1257;71714;-50
2023/11/02 01:44:40;;;;;;;0.50;0.50;;;;;;;9.03;100.00;100554.12;104613;1260;67533;-51
2023/11/02 01:47:36;;;;;;;0.40;0.40;;;;;;;8.98;100.00;100541.00;104634;1259;71293;-50
2023/11/02 01:50:13;;;;;;;0.70;0.40;;;;;;;8.94;100.00;100550.98;104763;1262;60560;-49
2023/11/02 01:52:51;;;;;;;3.30;0.40;;;;;;;8.90;100.00;100540.17;106409;1256;60487;-49
2023/11/02 01:55:37;;;;;;;1.10;0.40;;;;;;;8.87;100.00;100539.90;104569;1256;73893;-49
2023/11/02 01:58:05;;;;;;;1.30;0.40;;;;;;;8.85;100.00;100544.63;104541;1259;66848;-50
2023/11/02 02:00:54;;;;;;;0.40;0.30;;;;;;;8.83;100.00;100530.73;104702;1256;73203;-49
2023/11/02 02:03:28;;;;;;;0.50;0.40;;;;;;;8.80;100.00;100538.85;104356;1259;60582;-47
2023/11/02 02:06:09;;;;;;;0.40;0.40;;;;;;;8.77;100.00;100533.04;105759;1257;60492;-50
2023/11/02 02:08:55;;;;;;;0.50;0.50;;;;;;;8.70;100.00;100534.10;104773;1259;73919;-49
2023/11/02 02:11:34;;;;;;;2.70;0.40;;;;;;;8.64;100.00;100536.61;104528;1256;67728;-49
2023/11/02 02:14:17;;;;;;;1.40;0.40;;;;;;;8.59;100.00;100535.66;104404;1260;71248;-48
2023/11/02 02:16:47;;;;;;;1.40;0.60;;;;;;;8.55;100.00;100534.00;104605;1256;60495;-48
2023/11/02 02:19:34;;;;;;;1.70;0.50;;;;;;;8.51;100.00;100523.41;104388;1256;61024;-49
2023/11/02 02:22:18;;;;;;;0.70;0.50;;;;;;;8.45;100.00;100528.56;104653;1257;73991;-51
2023/11/02 02:24:56;;;;;;;2.90;0.40;;;;;;;8.41;100.00;100526.18;104446;1264;66926;-50
2023/11/02 02:27:28;;;;;;;0.50;0.30;;;;;;;8.36;100.00;100522.73;104435;1262;72546;-51
2023/11/02 02:30:15;;;;;;;4.90;0.30;;;;;;;8.33;100.00;100520.51;105029;1256;60585;-52
2023/11/02 02:32:45;;;;;;;0.50;0.30;;;;;;;8.28;100.00;100523.81;105689;1257;62177;-50
2023/11/02 02:35:14;;;;;;;1.40;0.40;;;;;;;8.24;100.00;100513.02;104690;1254;74844;-51
2023/11/02 02:38:17;;;;;;;0.90;0.30;;;;;;;8.19;100.00;100504.55;104565;1260;66009;-51
2023/11/02 02:40:51;;;;;;;0.80;0.40;;;;;;;8.15;100.00;100523.09;104490;1257;72430;-49
2023/11/02 02:43:18;;;;;;;0.60;0.40;;;;;;;8.11;100.00;100508.35;105134;1259;60651;-48
2023/11/02 02:48:40;;;;;;;1.00;0.40;;;;;;;8.03;100.00;100600.41;101456;1297;601611;-50
2023/11/02 02:51:08;;;;;;;1.90;0.40;;;;;;;7.99;100.00;100629.13;103619;1269;59284;-52
2023/11/02 02:53:37;;;;;;;2.00;0.50;;;;;;;7.92;100.00;100598.16;103762;1268;60458;-50
2023/11/02 02:56:06;;;;;;;1.10;0.40;;;;;;;7.87;100.00;100582.42;106733;1273;71142;-48
2023/11/02 02:58:47;;;;;;;0.70;0.50;;;;;;;7.82;100.00;100571.45;103956;1271;65851;-52
2023/11/02 03:01:17;;;;;;;4.00;0.50;;;;;;;7.77;100.00;100573.71;103862;1274;124339;-50
2023/11/02 03:03:44;;;;;;;0.90;0.50;;;;;;;7.71;100.00;100561.36;103785;1267;60481;-52
2023/11/02 03:06:12;;;;;;;1.10;0.50;;;;;;;7.67;100.00;100553.43;103752;1274;59295;-50
2023/11/02 03:08:41;;;;;;;1.80;0.40;;;;;;;7.62;100.00;100549.06;103723;1267;73209;-50
2023/11/02 03:11:10;;;;;;;0.70;0.50;;;;;;;7.59;100.00;100544.30;104732;1256;67272;-49
2023/11/02 03:13:48;;;;;;;2.90;0.40;;;;;;;7.57;100.00;100547.56;104537;1256;71460;-48
2023/11/02 03:16:16;;;;;;;2.10;0.50;;;;;;;7.54;100.00;100539.08;104543;1260;60630;-49
2023/11/02 03:18:43;;;;;;;1.80;0.80;;;;;;;7.52;100.00;100542.87;104655;1261;59656;-50
2023/11/02 03:21:11;;;;;;;1.10;0.60;;;;;;;7.51;100.00;100537.88;104575;1257;73124;-51
2023/11/02 03:23:49;;;;;;;2.20;0.70;;;;;;;7.49;100.00;100527.92;108849;1260;69559;-51
2023/11/02 03:26:24;;;;;;;3.90;0.80;;;;;;;7.46;100.00;100532.67;108726;1257;71449;-53
2023/11/02 03:29:13;;;;;;;1.60;0.70;;;;;;;7.42;100.00;100530.06;108689;1255;60684;-52
2023/11/02 03:32:12;;;;;;;1.20;0.60;;;;;;;7.39;100.00;100529.80;108916;1255;60499;-52
2023/11/02 03:34:39;;;;;;;0.90;0.50;;;;;;;7.36;100.00;100531.64;108802;1255;73169;-51
2023/11/02 03:37:14;;;;;;;1.00;0.60;;;;;;;7.34;100.00;100513.10;108905;1255;66790;-52
2023/11/02 03:39:43;;;;;;;0.50;0.40;;;;;;;7.33;100.00;100512.95;108718;1256;71283;-51
2023/11/02 03:42:18;;;;;;;0.70;0.40;;;;;;;7.32;100.00;100509.56;108673;1263;61761;-51
2023/11/02 03:45:08;;;;;;;0.40;0.30;;;;;;;7.34;100.00;100509.19;108848;1257;59122;-52
2023/11/02 03:47:36;;;;;;;1.60;0.30;;;;;;;7.36;100.00;100514.67;108732;1255;70880;-52
2023/11/02 03:50:34;;;;;;;0.60;0.30;;;;;;;7.38;100.00;100503.23;105019;1255;65729;-51
2023/11/02 03:53:26;;;;;;;0.30;0.30;;;;;;;7.40;100.00;100513.88;106995;1258;72472;-50
2023/11/02 03:56:19;;;;;;;1.70;0.30;;;;;;;7.41;100.00;100513.83;104602;1261;61018;-50
2023/11/02 03:59:28;;;;;;;1.50;0.50;;;;;;;7.43;100.00;100517.35;108831;1256;58848;-53
2023/11/02 04:02:00;;;;;;;1.70;0.40;;;;;;;7.42;100.00;100526.66;104062;1268;71294;-51
2023/11/02 04:04:47;;;;;;;2.30;0.50;;;;;;;7.40;100.00;100508.33;104498;1263;65960;-52
2023/11/02 04:07:44;;;;;;;1.20;0.40;;;;;;;7.37;100.00;100515.36;104716;1261;72764;-50
2023/11/02 04:10:12;;;;;;;0.80;0.50;;;;;;;7.32;100.00;100515.85;106407;1257;60495;-50
2023/11/02 04:13:04;;;;;;;1.00;0.70;;;;;;;7.27;100.00;100499.00;105694;1259;59660;-51
2023/11/02 04:15:32;;;;;;;0.60;0.50;;;;;;;7.21;100.00;100510.20;104640;1261;73186;-52
2023/11/02 04:17:59;;;;;;;1.00;0.40;;;;;;;7.14;100.00;100492.51;104570;1259;67007;-51
2023/11/02 04:20:27;;;;;;;1.30;0.40;;;;;;;7.10;100.00;100484.04;108609;1255;71452;-50
2023/11/02 04:22:54;;;;;;;0.60;0.40;;;;;;;7.07;100.00;100476.40;106659;1256;60753;-51
2023/11/02 04:25:22;;;;;;;0.80;0.40;;;;;;;7.05;100.00;100477.90;104579;1260;60186;-51
2023/11/02 04:27:49;;;;;;;1.00;0.30;;;;;;;7.03;100.00;100475.63;104542;1261;73084;-50
2023/11/02 04:30:16;;;;;;;1.50;0.40;;;;;;;7.02;100.00;100474.23;104779;1256;68554;-48
2023/11/02 04:32:44;;;;;;;1.30;0.40;;;;;;;7.00;100.00;100471.21;104597;1259;71526;-49
2023/11/02 04:35:11;;;;;;;0.50;0.40;;;;;;;6.98;100.00;100473.77;105722;1261;59983;-48
2023/11/02 04:37:39;;;;;;;0.70;0.50;;;;;;;6.96;100.00;100475.43;104385;1261;59659;-50
2023/11/02 04:40:11;;;;;;;3.30;0.50;;;;;;;6.92;100.00;100479.42;105827;1261;73951;-51
2023/11/02 04:42:38;;;;;;;1.10;0.50;;;;;;;6.87;100.00;100479.54;104947;1261;65820;-51
2023/11/02 04:45:06;;;;;;;1.30;0.50;;;;;;;6.82;100.00;100475.17;104795;1261;71404;-49
2023/11/02 04:47:34;;;;;;;0.70;0.50;;;;;;;6.78;100.00;100476.16;105792;1255;59761;-50
2023/11/02 04:50:01;;;;;;;0.70;0.50;;;;;;;6.74;100.00;100473.02;105239;1256;61428;-49
2023/11/02 04:52:35;;;;;;;0.70;0.40;;;;;;;6.70;100.00;100468.31;104358;1263;72995;-50
2023/11/02 04:55:03;;;;;;;1.50;0.50;;;;;;;6.65;100.00;100465.37;105816;1261;66398;-50
2023/11/02 04:57:32;;;;;;;0.90;0.40;;;;;;;6.63;100.00;100468.30;104597;1261;72539;-49
2023/11/02 05:00:02;;;;;;;0.70;0.50;;;;;;;6.60;100.00;100465.68;105961;1257;60674;-51
2023/11/02 05:02:30;;;;;;;0.60;0.30;;;;;;;6.58;100.00;100468.21;104994;1262;59714;-50
2023/11/02 05:04:57;;;;;;;0.50;0.40;;;;;;;6.57;100.00;100468.59;104640;1261;71930;-52
2023/11/02 05:07:25;;;;;;;0.60;0.50;;;;;;;6.58;100.00;100471.42;104588;1261;67079;-50
2023/11/02 05:09:53;;;;;;;0.80;0.60;;;;;;;6.59;100.00;100474.96;104646;1260;71562;-49
2023/11/02 05:12:20;;;;;;;3.80;0.60;;;;;;;6.60;100.00;100473.70;104581;1261;61683;-50
2023/11/02 05:14:47;;;;;;;0.80;0.60;;;;;;;6.60;100.00;100472.63;104699;1257;59690;-50
2023/11/02 05:17:15;;;;;;;1.10;0.60;;;;;;;6.61;100.00;100470.84;104688;1256;72161;-50
2023/11/02 05:19:42;;;;;;;1.00;0.50;;;;;;;6.61;100.00;100474.40;104581;1258;66418;-50
2023/11/02 05:22:09;;;;;;;0.90;0.60;;;;;;;6.60;100.00;100474.95;104609;1261;73196;-50
2023/11/02 05:24:37;;;;;;;3.60;0.80;;;;;;;6.60;100.00;100480.31;104823;1260;59877;-50
2023/11/02 05:27:04;;;;;;;1.90;0.60;;;;;;;6.59;100.00;100483.52;104653;1258;59966;-50
2023/11/02 05:29:32;;;;;;;0.90;0.70;;;;;;;6.60;100.00;100487.80;105830;1261;72021;-51
2023/11/02 05:31:59;;;;;;;2.60;0.60;;;;;;;6.61;100.00;100493.48;104677;1261;65523;-50
2023/11/02 05:34:27;;;;;;;2.40;0.60;;;;;;;6.64;100.00;100499.13;104716;1260;73990;-50
2023/11/02 05:36:54;;;;;;;0.90;0.70;;;;;;;6.65;100.00;100503.54;105853;1259;60461;-50
2023/11/02 05:39:22;;;;;;;2.10;0.50;;;;;;;6.69;100.00;100508.48;104444;1261;59620;-51
2023/11/02 05:41:49;;;;;;;0.70;0.60;;;;;;;6.73;100.00;100509.27;104755;1256;73105;-51
2023/11/02 05:44:17;;;;;;;0.60;0.50;;;;;;;6.78;100.00;100512.21;104598;1262;65787;-51
2023/11/02 05:46:44;;;;;;;1.20;0.50;;;;;;;6.82;100.00;100515.14;104519;1261;71168;-49
2023/11/02 05:49:11;;;;;;;1.00;0.50;;;;;;;6.87;100.00;100519.35;104733;1262;60105;-48
2023/11/02 05:51:39;;;;;;;0.90;0.60;;;;;;;6.92;100.00;100524.94;108797;1256;60172;-51
2023/11/02 05:54:06;;;;;;;1.00;0.70;;;;;;;6.96;100.00;100531.98;107443;1260;73147;-51
2023/11/02 05:56:34;;;;;;;1.00;0.70;;;;;;;7.03;100.00;100536.66;104552;1262;66847;-51
2023/11/02 05:59:02;;;;;;;1.20;0.60;;;;;;;7.09;100.00;100542.22;104603;1261;72719;-50
2023/11/02 06:01:30;;;;;;;0.80;0.50;;;;;;;7.15;100.00;100545.69;108313;1261;59380;-50
2023/11/02 06:03:58;;;;;;;0.80;0.50;;;;;;;7.21;100.00;100548.39;104572;1255;59672;-48
2023/11/02 06:06:26;;;;;;;2.20;0.60;;;;;;;7.27;100.00;100554.34;104486;1262;73578;-50
2023/11/02 06:08:53;;;;;;;0.60;0.50;;;;;;;7.32;100.00;100556.73;104595;1256;64666;-51
2023/11/02 06:11:20;;;;;;;0.70;0.60;;;;;;;7.37;100.00;100563.39;104785;1257;72729;-48
2023/11/02 06:13:48;;;;;;;0.80;0.50;;;;;;;7.44;100.00;100567.88;104505;1258;61673;-50
2023/11/02 06:16:15;;;;;;;0.50;0.30;;;;;;;7.51;100.00;100567.73;104622;1261;60489;-50
2023/11/02 06:18:43;;;;;;;0.50;0.40;;;;;;;7.59;100.00;100572.16;104628;1260;73060;-50
2023/11/02 06:21:10;;;;;;;0.70;0.50;;;;;;;7.68;100.00;100578.05;108846;1256;66444;-51
2023/11/02 06:23:38;;;;;;;0.80;0.60;;;;;;;7.75;100.00;100581.09;108711;1261;71526;-52
2023/11/02 06:26:05;;;;;;;0.50;0.40;;;;;;;7.81;100.00;100588.45;108752;1259;58673;-51
2023/11/02 06:28:33;;;;;;;1.90;0.40;;;;;;;7.88;100.00;100593.12;108732;1259;60066;-52
2023/11/02 06:31:01;;;;;;;0.50;0.40;;;;;;;7.94;100.00;100597.06;108848;1257;73102;-52
2023/11/02 06:33:30;;;;;;;0.70;0.50;;;;;;;8.01;100.00;100602.09;108594;1260;65598;-51
2023/11/02 06:35:58;;;;;;;0.90;0.60;;;;;;;8.08;100.00;100604.23;108588;1257;73570;-51
2023/11/02 06:38:25;;;;;;;2.10;0.70;;;;;;;8.13;100.00;100602.86;108744;1257;60237;-53
2023/11/02 06:40:53;;;;;;;1.00;0.70;;;;;;;8.18;100.00;100610.23;108771;1260;60134;-51
2023/11/02 06:43:20;;;;;;;0.90;0.60;;;;;;;8.23;100.00;100610.30;108763;1257;71913;-52
2023/11/02 06:45:47;;;;;;;1.40;0.60;;;;;;;8.30;100.00;100617.11;108785;1260;65521;-51
2023/11/02 06:48:15;;;;;;;1.60;0.60;;;;;;;8.39;100.00;100625.48;108715;1257;73666;-52
2023/11/02 06:50:46;;;;;;;2.50;0.60;;;;;;;8.48;100.00;100632.59;105594;1262;61603;-50
2023/11/02 06:53:14;;;;;;;0.80;0.60;;;;;;;8.57;100.00;100639.16;108845;1260;59357;-51
2023/11/02 06:55:41;;;;;;;0.60;0.50;;;;;;;8.64;100.00;100643.61;105228;1257;73073;-50
2023/11/02 06:58:09;;;;;;;0.70;0.60;;;;;;;8.72;100.00;100650.02;104655;1261;67003;-50
2023/11/02 07:00:36;;;;;;;1.90;0.90;;;;;;;8.82;100.00;100659.60;108623;1256;72712;-51
2023/11/02 07:03:04;;;;;;;1.00;0.60;;;;;;;8.92;100.00;100663.63;104765;1262;60762;-50
2023/11/02 07:05:31;;;;;;;4.70;0.70;;;;;;;9.01;100.00;100678.42;104575;1261;60906;-50
2023/11/02 07:07:59;;;;;;;2.10;0.60;;;;;;;9.09;100.00;100681.23;104766;1260;72980;-50
2023/11/02 07:10:26;;;;;;;1.40;0.70;;;;;;;9.17;100.00;100689.63;104405;1262;68090;-50
2023/11/02 07:12:54;;;;;;;1.20;0.60;;;;;;;9.21;100.00;100690.39;104710;1269;72654;-50
2023/11/02 07:15:22;;;;;;;0.60;0.50;;;;;;;9.25;100.00;100696.55;104628;1261;60445;-49
2023/11/02 07:17:50;;;;;;;2.30;0.60;;;;;;;9.30;100.00;100703.04;105763;1261;60636;-52
2023/11/02 07:20:18;;;;;;;0.50;0.40;;;;;;;9.32;100.00;100704.96;104590;1260;72642;-52
2023/11/02 07:22:45;;;;;;;2.40;0.50;;;;;;;9.36;100.00;100709.14;104573;1258;69661;-50
2023/11/02 07:25:13;;;;;;;1.20;0.50;;;;;;;9.41;100.00;100713.84;107808;1261;71452;-49
2023/11/02 07:27:40;;;;;;;0.50;0.50;;;;;;;9.48;100.00;100714.17;104427;1256;61018;-50
2023/11/02 07:30:10;;;;;;;1.20;0.60;;;;;;;9.56;100.00;100718.78;104523;1260;60444;-50
2023/11/02 07:32:38;;;;;;;0.60;0.50;;;;;;;9.63;100.00;100724.85;104785;1263;73938;-50
2023/11/02 07:35:06;;;;;;;0.70;0.40;;;;;;;9.69;100.00;100729.34;104702;1262;66897;-49
2023/11/02 07:37:33;;;;;;;0.70;0.60;;;;;;;9.76;100.00;100737.35;105178;1260;72730;-50
2023/11/02 07:40:02;;;;;;;1.10;0.50;;;;;;;9.83;100.00;100737.86;104642;1258;60994;-50
2023/11/02 07:42:29;;;;;;;0.60;0.50;;;;;;;9.91;100.00;100748.58;104749;1257;60757;-48
2023/11/02 07:44:57;;;;;;;1.20;0.50;;;;;;;9.98;100.00;100752.50;104755;1262;74446;-51
2023/11/02 07:47:24;;;;;;;1.40;0.60;;;;;;;10.06;100.00;100758.49;104373;1264;65861;-51
2023/11/02 07:49:51;;;;;;;1.30;0.60;;;;;;;10.15;100.00;100767.38;104454;1257;71467;-50
2023/11/02 07:52:19;;;;;;;0.80;0.70;;;;;;;10.23;100.00;100772.73;104506;1256;61065;-50
2023/11/02 07:54:46;;;;;;;3.00;0.90;;;;;;;10.30;100.00;100776.83;104692;1264;59192;-49
2023/11/02 07:57:15;;;;;;;0.90;0.60;;;;;;;10.34;100.00;100781.73;105031;1258;72609;-49
2023/11/02 07:59:43;;;;;;;0.70;0.40;;;;;;;10.37;100.00;100792.23;105161;1271;66960;-50
2023/11/02 08:02:11;;;;;;;0.80;0.50;;;;;;;10.42;100.00;100795.65;104585;1260;72544;-50
2023/11/02 08:04:38;;;;;;;1.10;0.60;;;;;;;10.49;100.00;100802.60;108724;1257;60575;-51
2023/11/02 08:07:07;;;;;;;1.10;0.50;;;;;;;10.55;100.00;100809.40;106628;1257;58498;-50
2023/11/02 08:09:37;;;;;;;1.90;0.60;;;;;;;10.65;100.00;100817.36;104969;1257;73859;-49
2023/11/02 08:12:08;;;;;;;1.60;0.50;;;;;;;10.75;100.00;100827.98;106579;1257;66916;-50
2023/11/02 08:14:36;;;;;;;2.90;0.70;;;;;;;10.85;100.00;100838.97;105562;1257;71410;-48
2023/11/02 08:17:04;;;;;;;1.30;0.50;;;;;;;10.97;100.00;100855.29;104654;1257;60724;-49
2023/11/02 08:19:32;;;;;;;0.70;0.60;;;;;;;11.07;100.00;100866.10;104617;1261;61510;-52
2023/11/02 08:21:59;;;;;;;1.50;0.60;;;;;;;11.12;100.00;100873.67;106432;1260;73708;-49
2023/11/02 08:24:27;;;;;;;3.80;0.80;;;;;;;11.17;100.00;100881.39;104540;1260;66944;-51
2023/11/02 08:26:54;;;;;;;1.10;0.70;;;;;;;11.19;100.00;100890.12;104485;1256;72161;-50
2023/11/02 08:29:22;;;;;;;0.80;0.60;;;;;;;11.21;100.00;100890.60;104426;1258;60521;-50
2023/11/02 08:31:50;;;;;;;1.40;0.70;;;;;;;11.22;100.00;100899.02;105625;1258;62080;-49
2023/11/02 08:34:17;;;;;;;1.00;0.70;;;;;;;11.24;100.00;100906.65;104346;1255;74348;-49
2023/11/02 08:36:45;;;;;;;2.10;0.50;;;;;;;11.28;100.00;100911.92;104632;1260;66821;-49
2023/11/02 08:39:12;;;;;;;1.90;0.60;;;;;;;11.33;100.00;100922.35;105098;1257;71564;-49
2023/11/02 08:41:40;;;;;;;2.70;0.60;;;;;;;11.37;100.00;100926.38;104604;1260;60517;-51
2023/11/02 08:44:07;;;;;;;1.20;0.70;;;;;;;11.41;100.00;100934.33;104491;1260;59244;-50
2023/11/02 08:46:36;;;;;;;0.50;0.50;;;;;;;11.47;100.00;100947.41;104637;1257;73670;-51
2023/11/02 08:49:04;;;;;;;0.80;0.70;;;;;;;11.54;100.00;100958.69;104611;1258;65758;-49
2023/11/02 08:51:32;;;;;;;4.50;0.60;;;;;;;11.62;100.00;100963.65;104665;1261;74391;-48
2023/11/02 08:54:01;;;;;;;1.30;0.60;;;;;;;11.69;100.00;100969.70;104743;1257;60570;-50
2023/11/02 08:56:29;;;;;;;0.80;0.50;;;;;;;11.78;100.00;100976.08;108787;1257;58831;-51
2023/11/02 08:58:56;;;;;;;0.60;0.60;;;;;;;11.88;100.00;100982.22;106182;1257;72865;-50
2023/11/02 09:01:25;;;;;;;1.10;0.70;;;;;;;11.96;100.00;100988.23;104715;1261;66947;-51
2023/11/02 09:03:53;;;;;;;0.90;0.50;;;;;;;12.04;100.00;100996.95;106617;1260;72672;-51
2023/11/02 09:06:22;;;;;;;1.20;0.60;;;;;;;12.13;100.00;101005.63;105272;1257;60648;-52
2023/11/02 09:08:50;;;;;;;2.90;0.60;;;;;;;12.23;100.00;101015.36;104932;1260;60496;-50
2023/11/02 09:11:18;;;;;;;2.30;0.60;;;;;;;12.30;100.00;101023.22;105887;1257;72904;-52
2023/11/02 09:13:46;;;;;;;2.10;0.60;;;;;;;12.34;100.00;101031.16;106079;1257;66909;-51
2023/11/02 09:16:14;;;;;;;1.50;0.50;;;;;;;12.35;100.00;101030.75;108678;1257;71518;-51
2023/11/02 09:18:42;;;;;;;0.80;0.60;;;;;;;12.37;100.00;101037.35;108757;1256;60195;-52
2023/11/02 09:21:09;;;;;;;1.40;0.60;;;;;;;12.39;100.00;101037.84;105608;1260;60372;-51
2023/11/02 09:23:37;;;;;;;1.90;0.70;;;;;;;12.39;100.00;101038.73;108820;1256;72649;-51
2023/11/02 09:26:08;;;;;;;2.00;0.70;;;;;;;12.43;100.00;101047.94;108753;1255;65785;-52
2023/11/02 09:28:35;;;;;;;0.80;0.50;;;;;;;12.46;100.00;101049.83;106182;1257;71587;-51
2023/11/02 09:31:04;;;;;;;1.00;0.60;;;;;;;12.50;100.00;101048.23;104329;1258;60563;-51
2023/11/02 09:33:31;;;;;;;0.60;0.50;;;;;;;12.57;100.00;101053.58;108757;1257;58489;-51
2023/11/02 09:36:00;;;;;;;1.60;0.50;;;;;;;12.64;100.00;101062.33;108754;1257;73937;-53
2023/11/02 09:38:27;;;;;;;2.60;1.20;;;;;;;12.70;100.00;101072.70;108582;1257;65642;-51
2023/11/02 09:40:55;;;;;;;2.40;0.60;;;;;;;12.76;100.00;101075.95;108712;1257;73148;-52
2023/11/02 09:43:23;;;;;;;1.10;0.50;;;;;;;12.79;100.00;101077.25;108627;1257;59032;-52
2023/11/02 09:45:50;;;;;;;1.70;0.60;;;;;;;12.78;100.00;101085.39;108658;1257;59105;-52
2023/11/02 09:48:18;;;;;;;1.10;0.60;;;;;;;12.76;100.00;101084.42;108521;1257;74267;-52
2023/11/02 09:50:45;;;;;;;0.80;0.50;;;;;;;12.75;100.00;101086.40;108696;1257;67394;-51
2023/11/02 09:53:13;;;;;;;1.30;0.60;;;;;;;12.74;100.00;101090.95;108569;1257;72777;-51
2023/11/02 09:55:40;;;;;;;1.00;0.70;;;;;;;12.75;100.00;101094.16;108765;1257;58763;-52
2023/11/02 09:58:08;;;;;;;4.60;0.60;;;;;;;12.75;100.00;101094.54;108715;1256;60135;-53
2023/11/02 10:00:35;;;;;;;1.00;0.60;;;;;;;12.77;100.00;101094.10;108679;1257;74301;-52
2023/11/02 10:03:02;;;;;;;1.70;0.60;;;;;;;12.76;100.00;101097.38;106310;1261;66944;-51
2023/11/02 10:05:31;;;;;;;0.80;0.60;;;;;;;12.78;100.00;101098.71;104502;1256;72732;-51
2023/11/02 10:07:58;;;;;;;0.90;0.50;;;;;;;12.82;100.00;101102.20;105387;1256;60801;-51
2023/11/02 10:10:32;;;;;;;1.00;0.60;;;;;;;12.84;100.00;101099.23;104767;1258;60419;-51
2023/11/02 10:13:00;;;;;;;1.80;0.80;;;;;;;12.89;100.00;101115.27;106606;1256;73704;-51
2023/11/02 10:15:29;;;;;;;1.10;0.60;;;;;;;12.93;100.00;101112.59;108646;1257;66182;-52
2023/11/02 10:17:56;;;;;;;1.20;0.70;;;;;;;12.95;100.00;101116.67;107208;1261;73153;-50
2023/11/02 10:20:23;;;;;;;0.60;0.60;;;;;;;12.98;100.00;101117.45;104735;1254;60648;-50
2023/11/02 10:23:05;;;;;;;1.40;0.60;;;;;;;13.03;100.00;101116.55;104598;1261;59251;-50
2023/11/02 10:25:33;;;;;;;1.10;0.50;;;;;;;13.11;100.00;101140.41;108626;1257;73984;-52
2023/11/02 10:28:01;;;;;;;1.80;0.70;;;;;;;13.19;100.00;101134.20;106285;1257;65771;-52
2023/11/02 10:30:28;;;;;;;0.90;0.50;;;;;;;13.23;100.00;101144.50;108751;1256;73285;-52
2023/11/02 10:33:06;;;;;;;4.30;1.10;;;;;;;13.28;100.00;101151.15;105197;1257;60470;-51
2023/11/02 10:35:34;;;;;;;1.30;0.50;;;;;;;13.35;100.00;101167.52;104571;1256;60480;-52
2023/11/02 10:38:01;;;;;;;1.40;0.60;;;;;;;13.39;100.00;101166.08;104615;1256;74856;-51
2023/11/02 10:40:44;;;;;;;0.90;0.60;;;;;;;13.41;100.00;101164.39;104607;1257;65728;-51
2023/11/02 10:43:18;;;;;;;1.30;0.70;;;;;;;13.41;100.00;101186.57;104731;1254;73133;-52
2023/11/02 10:45:50;;;;;;;;;;;;;;;13.42;100.00;101187.06;108746;1257;60149;-52
2023/11/02 10:48:18;;;;;;;1.00;0.70;;;;;;;13.42;100.00;101186.53;108276;1256;60170;-52
2023/11/02 10:50:47;;;;;;;4.30;0.70;;;;;;;13.42;100.00;101182.38;106472;1257;73879;-51
2023/11/02 10:53:20;;;;;;;1.50;0.70;;;;;;;13.40;100.00;101177.77;105011;1257;65966;-51
2023/11/02 10:55:48;;;;;;;2.80;0.70;;;;;;;13.38;100.00;101178.54;104564;1260;71468;-52
2023/11/02 10:58:16;;;;;;;0.90;0.60;;;;;;;13.41;100.00;101171.40;104673;1258;60521;-49
2023/11/02 11:00:43;;;;;;;1.20;0.70;;;;;;;13.45;100.00;101173.78;104625;1263;60396;-51
2023/11/02 11:03:11;;;;;;;2.50;0.60;;;;;;;13.50;100.00;101180.08;105550;1257;73952;-51
2023/11/02 11:05:39;;;;;;;1.10;0.70;;;;;;;13.55;100.00;101183.33;104465;1260;65707;-50
2023/11/02 11:08:07;;;;;;;1.00;0.90;;;;;;;13.57;100.00;101185.95;104820;1257;73177;-51
2023/11/02 11:10:36;;;;;;;2.20;0.70;;;;;;;13.59;100.00;101185.67;104521;1264;60989;-50
2023/11/02 11:13:06;;;;;;;0.70;0.60;;;;;;;13.62;100.00;101185.56;104637;1264;60557;-51
2023/11/02 11:15:33;;;;;;;0.80;0.50;;;;;;;13.63;100.00;101190.58;104924;1257;72745;-51
2023/11/02 11:18:01;;;;;;;0.90;0.50;;;;;;;13.62;100.00;101189.54;104925;1260;67760;-51
2023/11/02 11:20:29;;;;;;;2.40;0.50;;;;;;;13.59;100.00;101188.77;104668;1257;71477;-51
2023/11/02 11:22:56;;;;;;;3.20;0.50;;;;;;;13.58;100.00;101187.19;104572;1262;60554;-50
2023/11/02 11:25:23;;;;;;;2.00;0.70;;;;;;;13.57;100.00;101186.66;104753;1260;60567;-50
2023/11/02 11:27:51;;;;;;;0.60;0.50;;;;;;;13.59;100.00;101191.09;104634;1257;73902;-51
2023/11/02 11:30:22;;;;;;;2.20;0.50;;;;;;;13.64;100.00;101195.05;105561;1257;65661;-51
2023/11/02 11:32:49;;;;;;;1.90;0.50;;;;;;;13.70;100.00;101201.50;104831;1255;72725;-49